Time;durP1;ratioP1;P1;durP2;ratioP2;P2;SDS_P1;SDS_P2;PMS_P1;PMS_P2;Temp;Humidity;BMP_temperature;BMP_pressure;BME280_temperature;BME280_humidity;BME280_pressure;Samples;Min_cycle;Max_cycle;Signal;HPM_P1;HPM_P2
2021/03/22 00:01:23;;;;;;;27.67;8.25;;;;;;;5.07;58.34;99388.13;5073000;28;20043;-63
2021/03/22 00:03:50;;;;;;;29.45;8.80;;;;;;;5.04;58.64;99395.44;5072876;28;20051;-63
2021/03/22 00:06:17;;;;;;;25.40;7.47;;;;;;;4.99;58.79;99392.44;5072736;28;20047;-63
2021/03/22 00:08:44;;;;;;;29.48;7.22;;;;;;;4.94;58.96;99391.06;5072646;28;20125;-63
2021/03/22 00:11:11;;;;;;;33.35;9.35;;;;;;;4.88;59.13;99386.38;5071280;28;20502;-63
2021/03/22 00:13:37;;;;;;;24.33;7.90;;;;;;;4.85;59.19;99384.03;5072583;28;20044;-63
2021/03/22 00:16:08;;;;;;;30.98;8.15;;;;;;;4.81;59.36;99387.91;5072698;28;20044;-63
2021/03/22 00:18:38;;;;;;;20.98;8.38;;;;;;;4.76;59.23;99379.66;5072529;28;20068;-63
2021/03/22 00:21:08;;;;;;;22.75;7.53;;;;;;;4.74;59.06;99373.75;5071368;28;20101;-63
2021/03/22 00:23:35;;;;;;;27.13;7.60;;;;;;;4.62;59.18;99375.69;5072440;28;20041;-63
2021/03/22 00:26:03;;;;;;;26.88;8.13;;;;;;;4.57;59.16;99374.44;5072402;28;20151;-63
2021/03/22 00:28:30;;;;;;;28.77;7.97;;;;;;;4.59;59.15;99375.13;5072517;28;20036;-63
2021/03/22 00:30:56;;;;;;;24.63;7.22;;;;;;;4.67;59.17;99372.66;5072420;28;20041;-63
2021/03/22 00:33:24;;;;;;;26.60;6.93;;;;;;;4.81;59.29;99372.19;5073964;28;20126;-63
2021/03/22 00:35:52;;;;;;;27.88;9.00;;;;;;;4.95;59.10;99376.97;5097148;28;20042;-63
2021/03/22 00:38:19;;;;;;;28.33;7.95;;;;;;;5.02;58.72;99377.25;5097441;28;20039;-63
2021/03/22 00:40:46;;;;;;;28.73;7.43;;;;;;;5.14;58.74;99377.88;5073384;28;20045;-63
2021/03/22 00:43:13;;;;;;;17.33;6.40;;;;;;;5.14;58.35;99370.88;5071322;28;20043;-63
2021/03/22 00:45:51;;;;;;;22.55;6.07;;;;;;;5.14;58.57;99364.78;5071996;28;20037;-63
2021/03/22 00:48:18;;;;;;;19.92;6.32;;;;;;;5.20;58.45;99372.06;5070899;28;20048;-63
2021/03/22 00:50:45;;;;;;;23.48;7.65;;;;;;;5.22;58.12;99372.75;5071961;28;20053;-63
2021/03/22 00:53:15;;;;;;;27.48;7.20;;;;;;;5.24;58.23;99373.44;5072084;28;20045;-63
2021/03/22 00:55:43;;;;;;;26.58;7.10;;;;;;;5.24;58.20;99370.81;5072151;28;20119;-62
2021/03/22 00:58:09;;;;;;;22.90;7.70;;;;;;;5.27;58.23;99373.16;5070725;28;20044;-63
2021/03/22 01:00:40;;;;;;;28.35;7.82;;;;;;;5.22;58.26;99370.97;5072086;28;20067;-63
2021/03/22 01:03:09;;;;;;;26.80;7.60;;;;;;;5.12;58.35;99372.78;5071239;28;20051;-63
2021/03/22 01:05:36;;;;;;;25.00;7.35;;;;;;;5.10;58.41;99368.66;5071970;28;20097;-63
2021/03/22 01:08:03;;;;;;;28.98;7.90;;;;;;;5.07;58.43;99366.34;5071866;28;20044;-63
2021/03/22 01:10:37;;;;;;;24.20;6.70;;;;;;;5.07;58.46;99363.72;5071832;28;20047;-63
2021/03/22 01:13:05;;;;;;;25.65;7.32;;;;;;;5.02;58.65;99361.53;5072579;28;20506;-63
2021/03/22 01:15:31;;;;;;;31.80;8.88;;;;;;;5.04;58.82;99358.75;5071707;28;20052;-62
2021/03/22 01:17:58;;;;;;;27.48;7.28;;;;;;;5.07;58.54;99361.91;5071669;28;20041;-63
2021/03/22 01:20:32;;;;;;;27.42;8.20;;;;;;;4.99;58.93;99364.44;5071790;28;20115;-63
2021/03/22 01:22:58;;;;;;;21.50;7.47;;;;;;;4.99;58.86;99353.94;5071802;28;20048;-63
2021/03/22 01:25:25;;;;;;;26.80;8.30;;;;;;;4.99;58.93;99353.94;5071546;28;20037;-64
2021/03/22 01:27:56;;;;;;;23.38;6.55;;;;;;;4.95;59.06;99360.44;5071618;28;20547;-63
2021/03/22 01:30:30;;;;;;;26.00;8.65;;;;;;;4.96;59.24;99357.66;5071614;28;20040;-63
2021/03/22 01:32:59;;;;;;;26.85;8.35;;;;;;;4.93;59.14;99354.50;5071729;28;20036;-63
2021/03/22 01:35:26;;;;;;;28.25;8.45;;;;;;;4.94;59.47;99346.53;5071481;28;20041;-62
2021/03/22 01:37:53;;;;;;;26.48;7.68;;;;;;;5.00;59.45;99345.09;5071482;28;20390;-62
2021/03/22 01:40:38;;;;;;;30.83;10.07;;;;;;;5.01;59.31;99348.56;5071601;28;20044;-62
2021/03/22 01:43:13;;;;;;;25.05;8.98;;;;;;;5.08;59.36;99347.84;5071723;28;20052;-62
2021/03/22 01:45:39;;;;;;;31.80;8.77;;;;;;;5.05;59.35;99339.44;5071502;28;20052;-63
2021/03/22 01:48:07;;;;;;;30.15;9.55;;;;;;;5.07;59.34;99335.72;5071519;28;20047;-63
2021/03/22 01:50:34;;;;;;;26.80;8.38;;;;;;;5.06;59.32;99339.31;5071915;28;20048;-63
2021/03/22 01:53:01;;;;;;;22.77;8.80;;;;;;;5.05;59.39;99336.81;5071791;28;20054;-63
2021/03/22 01:55:28;;;;;;;28.75;9.02;;;;;;;5.01;59.51;99335.44;5074557;28;20055;-63
2021/03/22 01:57:55;;;;;;;20.38;8.15;;;;;;;4.96;59.79;99341.13;5075584;28;20044;-63
2021/03/22 02:00:27;;;;;;;30.50;9.35;;;;;;;4.91;59.84;99341.56;5074051;28;20051;-64
2021/03/22 02:02:58;;;;;;;21.33;8.27;;;;;;;4.91;60.08;99343.34;5075718;28;20043;-63
2021/03/22 02:05:27;;;;;;;27.88;8.75;;;;;;;4.83;60.04;99336.22;5075740;28;20041;-63
2021/03/22 02:08:01;;;;;;;25.70;8.43;;;;;;;4.90;60.02;99336.47;5075200;28;20040;-63
2021/03/22 02:10:29;;;;;;;27.75;9.13;;;;;;;4.82;60.22;99334.56;5075161;28;20054;-63
2021/03/22 02:12:56;;;;;;;28.77;8.27;;;;;;;4.85;60.02;99338.69;5074890;28;20123;-63
2021/03/22 02:15:24;;;;;;;30.45;9.10;;;;;;;4.84;60.07;99330.00;5073475;28;20058;-62
2021/03/22 02:18:08;;;;;;;22.10;8.07;;;;;;;4.84;60.16;99326.56;5074747;28;20056;-63
2021/03/22 02:20:53;;;;;;;;;;;;;;;4.77;60.10;99331.53;5075504;28;20048;-62
2021/03/22 02:23:57;;;;;;;24.92;8.18;;;;;;;4.74;59.70;99331.00;5074831;28;19921;-62
2021/03/22 02:27:04;;;;;;;26.30;7.90;;;;;;;4.67;59.81;99334.19;5043454;28;20044;-62
2021/03/22 02:29:45;;;;;;;29.58;7.43;;;;;;;4.78;59.73;99350.72;5074477;28;20047;-62
2021/03/22 02:32:36;;;;;;;21.42;6.93;;;;;;;4.81;59.60;99345.16;5074639;28;20040;-62
2021/03/22 02:35:10;;;;;;;22.20;6.90;;;;;;;4.88;59.55;99346.25;5073241;28;20068;-62
2021/03/22 02:37:49;;;;;;;24.07;8.10;;;;;;;4.83;59.40;99345.88;5074650;28;20506;-62
2021/03/22 02:40:34;;;;;;;22.00;7.28;;;;;;;4.86;59.56;99349.03;5074691;28;20079;-63
2021/03/22 02:43:03;;;;;;;23.15;7.95;;;;;;;4.87;59.50;99348.06;5074471;28;20045;-62
2021/03/22 02:45:33;;;;;;;27.58;7.88;;;;;;;4.87;59.45;99350.66;5074376;28;20048;-62
2021/03/22 02:48:00;;;;;;;32.80;8.13;;;;;;;4.86;59.45;99354.28;5075226;28;20036;-62
2021/03/22 02:50:33;;;;;;;23.13;7.38;;;;;;;4.79;59.62;99350.56;5075891;28;20044;-63
2021/03/22 02:53:24;;;;;;;20.20;7.20;;;;;;;4.80;59.50;99360.06;5074378;28;20041;-64
2021/03/22 02:56:00;;;;;;;18.73;7.10;;;;;;;4.81;59.33;99353.03;5074060;28;20049;-63
2021/03/22 02:58:31;;;;;;;27.13;8.55;;;;;;;4.82;59.30;99347.66;5073959;28;20045;-63
2021/03/22 03:01:05;;;;;;;21.42;7.18;;;;;;;4.85;59.27;99347.34;5072729;28;20505;-63
2021/03/22 03:03:34;;;;;;;22.80;7.03;;;;;;;4.81;59.17;99351.22;5073996;28;20079;-63
2021/03/22 03:06:02;;;;;;;23.15;7.72;;;;;;;4.80;59.19;99349.59;5072882;28;20067;-63
2021/03/22 03:08:32;;;;;;;25.35;7.70;;;;;;;4.84;59.26;99345.72;5073823;28;20040;-63
2021/03/22 03:10:59;;;;;;;22.27;6.78;;;;;;;4.85;59.23;99349.97;5072590;28;20048;-63
2021/03/22 03:13:26;;;;;;;20.85;7.78;;;;;;;4.82;59.07;99352.06;5073762;28;20494;-63
2021/03/22 03:15:53;;;;;;;23.90;7.43;;;;;;;4.77;59.25;99356.91;5073664;28;20048;-63
2021/03/22 03:18:20;;;;;;;32.20;7.50;;;;;;;4.78;59.22;99361.19;5073574;28;20071;-63
2021/03/22 03:20:47;;;;;;;29.85;7.00;;;;;;;4.82;59.07;99358.13;5073718;28;20048;-63
2021/03/22 03:23:15;;;;;;;23.13;6.75;;;;;;;4.68;59.09;99353.34;5072471;28;20037;-63
2021/03/22 03:25:41;;;;;;;19.13;6.38;;;;;;;4.62;59.30;99359.16;5072256;28;20047;-63
2021/03/22 03:28:09;;;;;;;23.30;5.43;;;;;;;4.55;59.15;99361.50;5073647;28;20052;-63
2021/03/22 03:30:37;;;;;;;19.17;6.05;;;;;;;4.51;59.16;99359.31;5073496;28;20037;-62
2021/03/22 03:33:05;;;;;;;24.13;6.00;;;;;;;4.62;59.12;99362.59;5073346;28;20040;-63
2021/03/22 03:35:35;;;;;;;20.20;5.65;;;;;;;4.70;59.01;99356.66;5073198;28;20140;-63
2021/03/22 03:38:03;;;;;;;27.23;6.97;;;;;;;4.68;59.11;99367.25;5073289;28;20040;-62
2021/03/22 03:40:33;;;;;;;18.85;5.72;;;;;;;4.70;59.07;99361.88;5073230;28;20047;-63
2021/03/22 03:43:00;;;;;;;28.08;6.65;;;;;;;4.70;59.06;99362.72;5073214;28;20045;-63
2021/03/22 03:45:29;;;;;;;20.20;5.82;;;;;;;4.71;58.91;99369.59;5073121;28;20044;-62
2021/03/22 03:48:10;;;;;;;20.23;6.22;;;;;;;4.69;59.00;99368.94;5073139;28;20116;-63
2021/03/22 03:50:37;;;;;;;20.13;5.70;;;;;;;4.69;59.08;99360.22;5072832;28;20418;-63
2021/03/22 03:53:04;;;;;;;25.17;6.32;;;;;;;4.71;59.05;99355.69;5071678;28;20514;-63
2021/03/22 03:55:32;;;;;;;25.60;6.32;;;;;;;4.76;58.92;99363.09;5072977;28;20049;-63
2021/03/22 03:57:59;;;;;;;23.65;5.53;;;;;;;4.79;58.86;99365.44;5072900;28;20040;-63
2021/03/22 04:00:28;;;;;;;19.73;6.32;;;;;;;4.78;58.72;99364.63;5071685;28;20045;-63
2021/03/22 04:02:56;;;;;;;17.05;5.57;;;;;;;4.78;58.73;99374.28;5072894;28;20123;-63
2021/03/22 04:05:25;;;;;;;26.27;5.70;;;;;;;4.75;58.67;99359.66;5072725;28;20040;-63
2021/03/22 04:07:53;;;;;;;22.30;5.45;;;;;;;4.73;58.73;99364.22;5072633;28;20048;-63
2021/03/22 04:10:19;;;;;;;17.20;5.78;;;;;;;4.71;58.92;99368.78;5072716;28;20459;-60
2021/03/22 04:12:47;;;;;;;12.88;5.25;;;;;;;4.75;58.85;99375.38;5072590;28;20487;-61
2021/03/22 04:15:16;;;;;;;25.90;7.10;;;;;;;4.74;58.92;99371.13;5089194;28;20017;-61
2021/03/22 04:17:43;;;;;;;21.92;4.97;;;;;;;4.74;58.79;99373.75;5097121;28;20044;-61
2021/03/22 04:20:12;;;;;;;17.85;5.53;;;;;;;4.65;58.97;99371.94;5084176;28;20048;-61
2021/03/22 04:22:38;;;;;;;19.83;4.82;;;;;;;4.68;59.00;99372.50;5072578;28;20048;-60
2021/03/22 04:25:07;;;;;;;20.05;5.35;;;;;;;4.65;59.05;99374.56;5072361;28;20101;-61
2021/03/22 04:27:33;;;;;;;18.73;5.15;;;;;;;4.66;58.98;99371.81;5071038;28;20072;-61
2021/03/22 04:30:01;;;;;;;22.23;5.20;;;;;;;4.68;59.15;99374.28;5072421;28;20063;-61
2021/03/22 04:32:28;;;;;;;26.48;5.85;;;;;;;4.69;59.08;99375.94;5072335;28;20047;-61
2021/03/22 04:34:55;;;;;;;19.50;5.63;;;;;;;4.69;59.01;99373.31;5072011;28;20044;-61
2021/03/22 04:37:22;;;;;;;18.40;5.10;;;;;;;4.65;59.12;99383.28;5072175;28;20044;-61
2021/03/22 04:39:48;;;;;;;23.60;5.68;;;;;;;4.65;59.19;99383.28;5071019;28;20049;-61
2021/03/22 04:42:15;;;;;;;18.88;5.13;;;;;;;4.68;59.09;99384.75;5072277;28;20032;-62
2021/03/22 04:44:42;;;;;;;20.25;5.30;;;;;;;4.79;59.06;99379.38;5072097;28;20119;-62
2021/03/22 04:47:09;;;;;;;18.63;5.70;;;;;;;4.86;59.02;99390.94;5072264;28;20049;-62
2021/03/22 04:49:36;;;;;;;20.50;6.00;;;;;;;4.82;58.84;99381.72;5072059;28;20372;-63
2021/03/22 04:52:04;;;;;;;17.02;5.47;;;;;;;4.76;58.99;99382.25;5072065;28;20067;-62
2021/03/22 04:54:30;;;;;;;24.10;6.13;;;;;;;4.75;59.07;99391.09;5071931;28;20048;-62
2021/03/22 04:57:09;;;;;;;22.15;5.68;;;;;;;4.75;59.08;99390.28;5071963;28;20509;-62
2021/03/22 04:59:38;;;;;;;17.15;5.10;;;;;;;4.74;59.06;99392.06;5071884;28;20044;-62
2021/03/22 05:02:05;;;;;;;18.73;5.30;;;;;;;4.76;59.17;99392.75;5072026;28;20402;-62
2021/03/22 05:04:53;;;;;;;19.17;5.47;;;;;;;4.78;59.04;99388.22;5071768;28;20049;-62
2021/03/22 05:07:20;;;;;;;17.67;5.22;;;;;;;4.84;59.10;99395.47;5071880;28;20049;-62
2021/03/22 05:09:47;;;;;;;19.92;5.63;;;;;;;4.71;59.13;99390.56;5071886;28;20041;-62
2021/03/22 05:12:14;;;;;;;18.20;5.00;;;;;;;4.70;59.25;99388.09;5071968;28;20494;-63
2021/03/22 05:14:41;;;;;;;19.08;5.50;;;;;;;4.68;59.13;99387.38;5071758;28;20444;-62
2021/03/22 05:17:09;;;;;;;20.05;4.88;;;;;;;4.67;59.24;99396.22;5072034;28;20044;-62
2021/03/22 05:19:36;;;;;;;21.35;5.65;;;;;;;4.61;59.42;99384.50;5071735;28;20032;-63
2021/03/22 05:22:04;;;;;;;19.13;5.80;;;;;;;4.60;59.56;99389.88;5071938;28;20407;-62
2021/03/22 05:24:31;;;;;;;20.27;5.75;;;;;;;4.61;59.58;99388.91;5071670;28;20044;-63
2021/03/22 05:26:58;;;;;;;21.50;6.32;;;;;;;4.58;59.76;99395.25;5071755;28;20131;-63
2021/03/22 05:29:26;;;;;;;19.98;5.80;;;;;;;4.62;59.78;99391.41;5072722;28;20490;-63
2021/03/22 05:31:53;;;;;;;24.38;5.68;;;;;;;4.67;59.70;99389.19;5075789;28;20040;-63
2021/03/22 05:34:21;;;;;;;21.67;5.70;;;;;;;4.59;59.67;99383.00;5075582;28;20056;-62
2021/03/22 05:36:48;;;;;;;22.83;5.43;;;;;;;4.63;60.00;99389.59;5074551;28;20044;-63
2021/03/22 05:39:16;;;;;;;16.10;5.80;;;;;;;4.59;59.90;99385.63;5075542;28;20048;-63
2021/03/22 05:41:50;;;;;;;18.85;5.50;;;;;;;4.56;60.05;99383.25;5074325;28;20508;-63
2021/03/22 05:44:35;;;;;;;14.65;5.43;;;;;;;4.67;60.01;99389.19;5075494;28;20052;-62
2021/03/22 05:47:16;;;;;;;18.33;5.32;;;;;;;4.74;59.87;99399.09;5076289;28;20399;-62
2021/03/22 05:50:09;;;;;;;17.75;5.00;;;;;;;4.76;59.84;99395.38;5076709;28;20078;-63
2021/03/22 05:52:54;;;;;;;25.30;5.95;;;;;;;4.75;59.79;99404.19;5069178;28;20063;-63
2021/03/22 05:55:43;;;;;;;19.67;6.15;;;;;;;4.66;59.82;99405.03;5075328;28;20044;-63
2021/03/22 05:58:26;;;;;;;22.85;5.22;;;;;;;4.71;59.95;99402.81;5075408;28;20044;-63
2021/03/22 06:00:59;;;;;;;22.52;6.10;;;;;;;4.80;59.97;99407.22;5075616;28;20041;-63
2021/03/22 06:03:32;;;;;;;28.67;6.80;;;;;;;4.89;59.91;99411.59;5075680;28;20045;-64
2021/03/22 06:06:09;;;;;;;23.48;5.80;;;;;;;4.92;59.77;99415.75;5075456;28;20052;-64
2021/03/22 06:08:44;;;;;;;34.90;6.07;;;;;;;4.92;59.71;99416.56;5073999;28;20051;-65
2021/03/22 06:11:22;;;;;;;15.65;5.35;;;;;;;4.97;59.70;99422.19;5075494;28;20059;-62
2021/03/22 06:13:57;;;;;;;23.55;6.05;;;;;;;5.01;59.53;99420.13;5073943;28;20080;-62
2021/03/22 06:16:28;;;;;;;14.57;5.50;;;;;;;4.98;59.67;99423.06;5073849;28;20063;-62
2021/03/22 06:18:59;;;;;;;18.38;6.15;;;;;;;4.94;59.75;99430.38;5075089;28;20133;-63
2021/03/22 06:21:28;;;;;;;21.58;5.85;;;;;;;5.05;59.61;99428.53;5075228;28;20106;-64
2021/03/22 06:23:55;;;;;;;18.35;6.32;;;;;;;5.08;59.64;99429.06;5075074;28;20437;-63
2021/03/22 06:26:36;;;;;;;19.38;6.07;;;;;;;5.09;59.50;99433.34;5075171;28;20071;-62
2021/03/22 06:29:08;;;;;;;15.50;5.22;;;;;;;5.15;59.61;99437.22;5075229;28;20040;-62
2021/03/22 06:31:35;;;;;;;17.60;5.35;;;;;;;5.16;59.46;99431.81;5074723;28;20051;-63
2021/03/22 06:34:04;;;;;;;22.15;5.90;;;;;;;5.08;59.32;99433.50;5074881;28;20135;-62
2021/03/22 06:36:32;;;;;;;24.42;6.68;;;;;;;5.12;59.37;99433.06;5075006;28;20046;-64
2021/03/22 06:39:01;;;;;;;16.80;5.82;;;;;;;5.10;59.42;99435.03;5074863;28;20058;-63
2021/03/22 06:41:34;;;;;;;24.08;6.10;;;;;;;4.99;59.27;99435.19;5074894;28;20037;-63
2021/03/22 06:44:04;;;;;;;26.60;6.80;;;;;;;5.02;59.47;99436.66;5074243;28;20047;-63
2021/03/22 06:46:31;;;;;;;23.70;6.80;;;;;;;5.06;59.57;99431.03;5078143;28;20053;-62
2021/03/22 06:49:00;;;;;;;25.45;7.20;;;;;;;5.19;59.42;99439.41;5077253;28;20457;-62
2021/03/22 06:51:27;;;;;;;24.23;6.78;;;;;;;5.25;59.22;99431.94;5078600;28;20044;-62
2021/03/22 06:53:58;;;;;;;26.80;7.55;;;;;;;5.27;59.11;99445.72;5078484;28;20060;-62
2021/03/22 06:56:28;;;;;;;19.75;7.43;;;;;;;5.11;59.27;99444.53;5075043;28;20048;-63
2021/03/22 06:59:11;;;;;;;21.10;8.32;;;;;;;5.02;59.78;99442.75;5074372;28;20044;-62
2021/03/22 07:01:39;;;;;;;17.92;6.45;;;;;;;5.06;59.78;99448.53;5074426;28;20052;-62
2021/03/22 07:04:22;;;;;;;17.90;7.07;;;;;;;5.13;59.83;99453.06;5073073;28;20040;-62
2021/03/22 07:07:14;;;;;;;27.23;7.53;;;;;;;5.18;59.90;99452.63;5074108;28;20067;-63
2021/03/22 07:09:44;;;;;;;20.45;6.43;;;;;;;5.17;59.80;99453.59;5074056;28;20091;-62
2021/03/22 07:12:23;;;;;;;22.15;6.97;;;;;;;5.15;59.77;99445.06;5074383;28;20173;-64
2021/03/22 07:14:51;;;;;;;17.25;7.20;;;;;;;5.24;59.91;99440.78;5074448;28;20055;-63
2021/03/22 07:17:21;;;;;;;17.67;6.82;;;;;;;5.34;59.64;99447.59;5074216;28;20423;-63
2021/03/22 07:20:06;;;;;;;17.17;6.18;;;;;;;5.42;59.67;99446.91;5073831;28;20139;-63
2021/03/22 07:22:34;;;;;;;19.88;7.00;;;;;;;5.43;59.46;99449.41;5073766;28;20045;-63
2021/03/22 07:25:07;;;;;;;17.38;7.07;;;;;;;5.40;59.70;99454.09;5073661;28;20068;-63
2021/03/22 07:27:41;;;;;;;19.90;6.35;;;;;;;5.41;59.65;99453.94;5072332;28;20048;-63
2021/03/22 07:30:28;;;;;;;14.65;6.55;;;;;;;5.42;59.66;99454.75;5072385;28;20080;-62
2021/03/22 07:33:17;;;;;;;14.90;6.75;;;;;;;5.44;59.95;99460.72;5073686;28;20102;-63
2021/03/22 07:36:02;;;;;;;22.20;7.10;;;;;;;5.55;59.80;99454.44;5073415;28;20465;-63
2021/03/22 07:38:49;;;;;;;;;;;;;;;5.54;59.93;99460.66;5073844;28;20401;-62
2021/03/22 07:41:21;;;;;;;17.15;6.65;;;;;;;5.60;59.96;99463.53;5073687;28;20534;-62
2021/03/22 07:44:28;;;;;;;18.42;7.30;;;;;;;5.66;59.82;99473.44;5073664;28;20032;-62
2021/03/22 07:47:07;;;;;;;18.48;6.55;;;;;;;5.72;59.77;99482.53;4991731;28;20136;-62
2021/03/22 07:49:49;;;;;;;16.90;6.55;;;;;;;5.68;59.75;99484.63;5060866;28;20066;-64
2021/03/22 07:52:27;;;;;;;12.85;6.43;;;;;;;5.60;59.96;99474.03;5072601;28;20489;-63
2021/03/22 07:55:18;;;;;;;15.05;6.38;;;;;;;5.53;59.96;99470.31;5087412;28;20045;-63
2021/03/22 07:57:53;;;;;;;17.42;6.10;;;;;;;5.59;59.99;99474.16;5092739;28;20048;-63
2021/03/22 08:00:28;;;;;;;15.27;6.40;;;;;;;5.67;59.42;99472.50;5078650;28;20080;-63
2021/03/22 08:03:19;;;;;;;14.07;6.70;;;;;;;5.79;59.68;99480.97;5073282;28;20087;-63
2021/03/22 08:06:18;;;;;;;19.88;6.43;;;;;;;5.90;59.24;99482.59;5073051;28;20049;-63
2021/03/22 08:08:59;;;;;;;15.05;7.00;;;;;;;5.80;59.37;99485.28;5072911;28;20045;-63
2021/03/22 08:11:36;;;;;;;12.75;5.82;;;;;;;5.83;59.65;99489.38;5072834;28;20051;-63
2021/03/22 08:14:13;;;;;;;10.52;5.43;;;;;;;5.94;59.15;99491.84;5071378;28;20075;-63
2021/03/22 08:17:19;;;;;;;17.25;6.32;;;;;;;6.12;58.93;99489.25;5072671;28;20048;-63
2021/03/22 08:19:54;;;;;;;15.85;5.80;;;;;;;6.13;58.88;99488.31;5056367;28;20058;-63
2021/03/22 08:22:27;;;;;;;19.25;6.90;;;;;;;6.25;58.78;99495.00;5072606;28;20079;-63
2021/03/22 08:25:16;;;;;;;14.57;6.10;;;;;;;6.27;58.39;99500.91;5072567;28;20577;-63
2021/03/22 08:27:51;;;;;;;12.20;5.60;;;;;;;6.07;58.30;99487.09;5072820;28;20459;-64
2021/03/22 08:30:29;;;;;;;12.23;5.93;;;;;;;5.90;58.61;99491.28;5072730;28;20413;-67
2021/03/22 08:33:03;;;;;;;14.48;6.10;;;;;;;5.93;58.90;99498.09;5072942;28;20044;-66
2021/03/22 08:35:36;;;;;;;14.00;6.10;;;;;;;5.97;58.83;99506.50;5072472;28;20591;-64
2021/03/22 08:38:09;;;;;;;18.15;6.47;;;;;;;6.13;58.60;99496.19;5072823;28;20059;-63
2021/03/22 08:40:50;;;;;;;13.25;5.63;;;;;;;6.16;58.17;99503.75;5073473;28;20060;-63
2021/03/22 08:43:25;;;;;;;15.45;6.03;;;;;;;6.15;58.07;99504.72;5073404;28;20040;-64
2021/03/22 08:46:07;;;;;;;22.17;6.35;;;;;;;6.23;58.31;99514.50;5072547;28;20115;-63
2021/03/22 08:48:36;;;;;;;15.63;6.65;;;;;;;6.37;58.16;99516.63;5072256;28;20410;-63
2021/03/22 08:51:07;;;;;;;17.75;7.10;;;;;;;6.50;57.94;99517.09;5073148;28;20072;-62
2021/03/22 08:53:39;;;;;;;14.82;6.65;;;;;;;6.62;57.36;99513.28;5073577;28;20044;-61
2021/03/22 08:56:21;;;;;;;13.70;6.82;;;;;;;6.59;57.09;99516.19;5072631;28;20131;-62
2021/03/22 08:59:00;;;;;;;25.17;8.35;;;;;;;6.57;56.89;99514.69;5071927;28;20094;-63
2021/03/22 09:01:31;;;;;;;10.45;5.80;;;;;;;6.72;56.82;99515.81;5071966;28;20040;-62
2021/03/22 09:04:16;;;;;;;14.57;5.82;;;;;;;6.70;56.01;99510.72;5071196;28;20473;-62
2021/03/22 09:07:00;;;;;;;10.60;5.72;;;;;;;6.67;56.11;99513.63;5072061;28;20498;-62
2021/03/22 09:09:29;;;;;;;14.60;5.72;;;;;;;6.67;55.72;99510.19;5071820;28;20055;-62
2021/03/22 09:11:58;;;;;;;15.57;5.35;;;;;;;6.58;56.16;99511.09;5071753;28;20418;-62
2021/03/22 09:14:41;;;;;;;8.48;4.65;;;;;;;6.74;55.87;99500.75;5070398;28;20056;-62
2021/03/22 09:17:25;;;;;;;13.65;5.72;;;;;;;6.82;55.47;99510.50;5071974;28;20040;-62
2021/03/22 09:20:18;;;;;;;15.63;6.40;;;;;;;6.83;55.29;99515.59;5071735;28;20048;-62
2021/03/22 09:22:52;;;;;;;15.45;5.63;;;;;;;6.80;55.14;99515.06;5071743;28;20045;-61
2021/03/22 09:26:00;;;;;;;14.93;5.45;;;;;;;6.85;54.91;99515.44;5071810;28;20425;-61
2021/03/22 09:28:50;;;;;;;13.52;5.57;;;;;;;6.72;54.83;99521.06;5071660;28;20043;-61
2021/03/22 09:31:43;;;;;;;13.70;4.78;;;;;;;6.77;54.54;99520.63;5071714;28;20067;-61
2021/03/22 09:34:34;;;;;;;11.52;5.45;;;;;;;6.69;54.46;99519.59;5071731;28;20037;-62
2021/03/22 09:37:34;;;;;;;13.65;5.95;;;;;;;6.59;55.10;99529.31;5071691;28;20040;-62
2021/03/22 09:40:04;;;;;;;9.88;5.15;;;;;;;6.57;55.37;99530.44;5071266;28;20045;-61
2021/03/22 09:42:31;;;;;;;11.88;5.03;;;;;;;6.68;55.10;99533.69;5071558;28;20514;-61
2021/03/22 09:45:18;;;;;;;10.88;5.57;;;;;;;6.65;54.95;99534.00;5070245;28;20051;-62
2021/03/22 09:48:05;;;;;;;12.07;4.63;;;;;;;6.74;54.94;99537.53;5070185;28;20048;-61
2021/03/22 09:50:35;;;;;;;12.82;5.80;;;;;;;6.74;54.95;99539.34;5071458;28;20127;-61
2021/03/22 09:53:19;;;;;;;11.27;6.00;;;;;;;6.71;54.82;99543.06;5070097;28;20041;-61
2021/03/22 09:56:04;;;;;;;14.15;6.03;;;;;;;6.83;54.74;99538.41;5071335;28;20052;-61
2021/03/22 09:58:34;;;;;;;11.88;5.32;;;;;;;6.82;54.74;99540.22;5071412;28;20074;-61
2021/03/22 10:01:05;;;;;;;9.20;4.78;;;;;;;6.82;54.28;99542.84;5071358;28;20080;-62
2021/03/22 10:03:49;;;;;;;8.82;4.75;;;;;;;6.64;54.69;99542.00;5071460;28;20131;-61
2021/03/22 10:06:57;;;;;;;10.52;4.43;;;;;;;6.76;54.58;99547.88;5071149;28;20061;-62
2021/03/22 10:09:27;;;;;;;11.02;5.20;;;;;;;6.75;54.82;99543.59;5050290;28;20570;-62
2021/03/22 10:11:57;;;;;;;9.57;4.28;;;;;;;6.66;54.56;99546.16;5071408;28;20052;-62
2021/03/22 10:14:34;;;;;;;13.38;4.95;;;;;;;6.77;55.09;99549.53;5071266;28;20044;-62
2021/03/22 10:17:02;;;;;;;11.77;5.05;;;;;;;6.90;54.99;99550.00;5074795;28;20094;-62
2021/03/22 10:19:31;;;;;;;7.90;4.80;;;;;;;6.98;54.55;99552.69;5074850;28;20099;-62
2021/03/22 10:22:03;;;;;;;8.93;4.63;;;;;;;7.08;54.34;99542.91;5074975;28;20063;-62
2021/03/22 10:24:40;;;;;;;10.73;4.63;;;;;;;7.30;54.21;99543.38;5074904;28;20462;-63
2021/03/22 10:27:26;;;;;;;10.38;4.65;;;;;;;7.26;53.38;99544.69;5075036;28;20059;-63
2021/03/22 10:30:06;;;;;;;9.50;4.45;;;;;;;7.09;53.50;99556.88;5074703;28;20055;-63
2021/03/22 10:32:33;;;;;;;10.45;4.65;;;;;;;7.15;54.02;99551.03;5073478;28;20048;-63
2021/03/22 10:35:07;;;;;;;11.93;4.47;;;;;;;7.09;53.80;99543.72;5073237;28;20102;-63
2021/03/22 10:37:42;;;;;;;9.65;4.53;;;;;;;7.14;54.00;99549.34;5073242;28;20102;-62
2021/03/22 10:40:22;;;;;;;9.70;4.60;;;;;;;7.17;53.83;99555.13;5074484;28;20048;-62
2021/03/22 10:42:51;;;;;;;8.80;4.82;;;;;;;7.24;53.66;99551.91;5074592;28;20037;-62
2021/03/22 10:45:34;;;;;;;7.40;4.60;;;;;;;7.17;53.61;99552.50;5074418;28;20102;-63
2021/03/22 10:48:18;;;;;;;9.32;4.45;;;;;;;7.33;53.38;99548.34;5074326;28;20102;-63
2021/03/22 10:50:59;;;;;;;8.70;4.60;;;;;;;7.41;53.06;99556.31;5074360;28;20037;-63
2021/03/22 10:53:28;;;;;;;10.15;4.72;;;;;;;7.64;53.27;99556.63;5074297;28;20045;-62
2021/03/22 10:55:55;;;;;;;7.70;4.10;;;;;;;7.58;52.28;99544.91;5074329;28;20123;-63
2021/03/22 10:58:26;;;;;;;9.45;4.20;;;;;;;7.69;52.41;99546.44;5074196;28;20048;-63
2021/03/22 11:00:59;;;;;;;12.75;4.90;;;;;;;7.82;52.15;99544.22;5074221;28;20064;-63
2021/03/22 11:03:28;;;;;;;11.27;4.40;;;;;;;7.80;51.99;99551.47;5074154;28;20564;-63
2021/03/22 11:05:56;;;;;;;10.57;4.65;;;;;;;7.88;51.84;99542.78;5073863;28;20284;-62
2021/03/22 11:08:27;;;;;;;13.48;4.60;;;;;;;7.78;51.97;99547.31;5074149;28;20605;-64
2021/03/22 11:11:02;;;;;;;6.43;3.55;;;;;;;7.61;52.26;99552.50;5074312;28;20037;-64
2021/03/22 11:13:33;;;;;;;8.65;3.75;;;;;;;7.60;52.33;99550.03;5074014;28;20486;-63
2021/03/22 11:16:18;;;;;;;8.88;4.25;;;;;;;7.47;52.55;99550.44;5073830;28;20075;-62
2021/03/22 11:18:46;;;;;;;7.93;3.95;;;;;;;7.38;52.88;99551.34;5073866;28;20040;-63
2021/03/22 11:21:18;;;;;;;9.25;4.28;;;;;;;7.32;53.24;99557.22;5073797;28;20048;-62
2021/03/22 11:23:50;;;;;;;11.65;5.45;;;;;;;7.25;53.30;99561.44;5073873;28;20041;-62
2021/03/22 11:26:21;;;;;;;7.22;3.75;;;;;;;7.26;53.17;99558.66;5073432;28;20032;-62
2021/03/22 11:28:49;;;;;;;9.98;4.60;;;;;;;7.31;53.45;99558.22;5073549;28;20048;-63
2021/03/22 11:31:25;;;;;;;5.40;3.28;;;;;;;7.34;53.33;99565.78;5073855;28;20045;-63
2021/03/22 11:34:01;;;;;;;7.25;4.63;;;;;;;7.53;53.67;99572.66;5073608;28;20041;-62
2021/03/22 11:36:35;;;;;;;8.45;4.70;;;;;;;7.56;53.23;99572.38;5073545;28;20051;-62
2021/03/22 11:39:12;;;;;;;7.43;3.38;;;;;;;7.70;52.76;99569.97;5073321;28;20123;-62
2021/03/22 11:41:42;;;;;;;7.07;3.38;;;;;;;7.80;52.16;99559.34;5073411;28;20123;-62
2021/03/22 11:44:24;;;;;;;7.60;4.00;;;;;;;7.71;52.09;99557.63;5095101;28;20622;-63
2021/03/22 11:46:53;;;;;;;8.57;3.97;;;;;;;7.82;52.62;99559.19;5096960;28;20112;-62
2021/03/22 11:49:32;;;;;;;5.80;3.63;;;;;;;7.78;52.67;99563.94;5075339;28;20119;-62
2021/03/22 11:52:00;;;;;;;5.70;3.88;;;;;;;7.67;52.77;99566.81;5073381;28;20059;-63
2021/03/22 11:54:27;;;;;;;8.18;5.18;;;;;;;7.59;52.61;99567.63;5073242;28;20051;-62
2021/03/22 11:57:00;;;;;;;10.88;4.60;;;;;;;7.51;53.46;99570.19;5073254;28;20499;-63
2021/03/22 11:59:28;;;;;;;9.13;4.88;;;;;;;7.62;53.34;99569.91;5072909;28;20040;-62
2021/03/22 12:02:06;;;;;;;10.07;4.85;;;;;;;7.55;53.41;99571.53;5074158;28;20488;-64
2021/03/22 12:04:33;;;;;;;10.20;4.57;;;;;;;7.39;53.83;99566.16;5073854;28;20120;-62